Flight Track Log - Related Links

Times and Time Zones

All times are in EDT time to prevent confusion due to time zone crossing. See the N609C flight status page for this flight to view local times or setup timezone preferences in your user account.

Time Position Orientation Groundspeed Altitude Reporting Facility
EDT Latitude Longitude Course Direction KTS MPH feet Rate Location/Type
Wed 01:18:18 PM 43.1500 -88.6000 90° East 142 163 3,000  Level KMKE
Wed 01:19:22 PM 43.1503 -88.5464 90° East 135 155 3,700 571 Climbing Chicago Center
Wed 01:20:24 PM 43.1431 -88.4911 100° East 143 165 4,200 677 Climbing Chicago Center
Wed 01:21:26 PM 43.1378 -88.4394 98° East 141 162 5,100 774 Climbing Chicago Center
Wed 01:22:28 PM 43.1300 -88.3922 103° East 134 154 5,800 677 Climbing Chicago Center
Wed 01:23:30 PM 43.1242 -88.3419 99° East 133 153 6,500 677 Climbing Chicago Center
Wed 01:24:32 PM 43.1175 -88.2797 98° East 140 161 7,200 677 Climbing Chicago Center
Wed 01:25:34 PM 43.1119 -88.2269 98° East 141 162 7,900 629 Climbing Chicago Center
Wed 01:26:36 PM 43.1072 -88.1761 97° East 137 158 8,500 581 Climbing Chicago Center
Wed 01:27:38 PM 43.1014 -88.1264 99° East 133 153 9,100 532 Climbing Chicago Center
Wed 01:28:40 PM 43.0958 -88.0739 98° East 139 160 9,600 532 Climbing Chicago Center
Wed 01:29:42 PM 43.0886 -88.0114 99° East 143 165 10,200 532 Climbing Chicago Center
Wed 01:30:44 PM 43.0833 -87.9589 98° East 140 161 10,700 384 Climbing Chicago Center
Wed 01:31:47 PM 43.0778 -87.9042 98° East 145 167 11,000 192 Climbing Chicago Center
Wed 01:32:49 PM 43.0708 -87.8425 99° East 161 185 11,100 48 Climbing Chicago Center
Wed 01:33:51 PM 43.0636 -87.7747 98° East 176 203 11,100  Level Chicago Center
Wed 01:34:53 PM 43.0547 -87.6964 99° East 180 207 11,100  Level Chicago Center
Wed 01:35:55 PM 43.0464 -87.6286 100° East 179 206 11,100  Level Chicago Center
Wed 01:36:57 PM 43.0394 -87.5631 98° East 176 203 11,100  Level Chicago Center
Wed 01:37:59 PM 43.0319 -87.4964 99° East 177 204 11,100  Level Chicago Center
Wed 01:39:01 PM 43.0247 -87.4283 98° East 180 207 11,100  Level Chicago Center
Wed 01:40:03 PM 43.0161 -87.3564 99° East 179 206 11,100  Level Chicago Center
Wed 01:41:05 PM 43.0078 -87.2897 100° East 179 206 11,100  Level Chicago Center
Wed 01:42:07 PM 43.0003 -87.2217 99° East 179 206 11,100  Level Chicago Center
Wed 01:43:10 PM 42.9933 -87.1544 98° East 179 206 11,100  Level Chicago Center
Wed 01:44:12 PM 42.9828 -87.0728 100° East 182 209 11,100  Level Chicago Center
Wed 01:45:14 PM 42.9744 -87.0053 100° East 182 209 11,100  Level Chicago Center
Wed 01:46:16 PM 42.9672 -86.9372 98° East 182 209 11,100  Level Chicago Center
Wed 01:47:18 PM 42.9592 -86.8697 99° East 182 209 11,100  Level Chicago Center
Wed 01:48:20 PM 42.9508 -86.8017 99° East 183 211 11,100  Level Chicago Center
Wed 01:49:22 PM 42.9411 -86.7208 99° East 180 207 11,100  Level Chicago Center
Wed 01:50:24 PM 42.9333 -86.6533 99° East 182 209 11,100  Level Chicago Center
Wed 01:51:26 PM 42.9247 -86.5853 100° East 183 211 11,100  Level Chicago Center
Wed 01:52:28 PM 42.9161 -86.5197 100° East 178 205 11,100  Level Chicago Center
Wed 01:53:30 PM 42.9078 -86.4517 99° East 181 208 11,100  Level Chicago Center
Wed 01:54:33 PM 42.8997 -86.3844 99° East 181 208 11,100  Level Chicago Center
Wed 01:55:35 PM 42.8903 -86.3044 99° East 179 206 11,100  Level Chicago Center
Wed 01:56:37 PM 42.8814 -86.2375 100° East 181 208 11,100  Level Chicago Center
Wed 01:57:39 PM 42.8733 -86.1700 99° East 182 209 11,100  Level Chicago Center
Wed 01:58:41 PM 42.8644 -86.1047 101° East 177 204 11,100  Level Chicago Center
Wed 01:59:43 PM 42.8564 -86.0375 99° East 180 207 11,100  Level Chicago Center
Wed 02:00:45 PM 42.8458 -85.9569 100° East 182 209 11,100 -48 Level Chicago Center
Wed 02:01:47 PM 42.8372 -85.8906 100° East 180 207 11,000 -48 Descending Chicago Center
Wed 02:02:49 PM 42.8281 -85.8225 100° East 181 208 11,000  Level Chicago Center
Wed 02:03:52 PM 42.8206 -85.7575 99° East 179 206 11,000  Level Chicago Center
Wed 02:04:54 PM 42.8106 -85.6769 100° East 180 207 11,000  Level Chicago Center
Wed 02:05:56 PM 42.8008 -85.6106 101° East 180 207 11,000  Level Chicago Center
Wed 02:06:58 PM 42.7931 -85.5453 99° East 177 204 11,000  Level Chicago Center
Wed 02:08:00 PM 42.7847 -85.4797 100° East 177 204 11,000  Level Chicago Center
Wed 02:09:02 PM 42.7708 -85.4150 106° East 178 205 11,000  Level Chicago Center
Wed 02:10:04 PM 42.7581 -85.3506 105° East 178 205 11,000  Level Chicago Center
Wed 02:11:06 PM 42.7439 -85.2711 104° East 180 207 11,000  Level Chicago Center
Wed 02:12:08 PM 42.7317 -85.2064 104° East 178 205 11,000  Level Chicago Center
Wed 02:13:10 PM 42.7186 -85.1417 105° East 178 205 11,000  Level Chicago Center
Wed 02:14:13 PM 42.7069 -85.0781 104° East 176 203 11,000  Level Chicago Center
Wed 02:15:15 PM 42.6936 -85.0131 106° East 177 204 11,000  Level Chicago Center
Wed 02:16:17 PM 42.6817 -84.9486 104° East 176 203 11,000  Level Chicago Center
Wed 02:17:19 PM 42.6664 -84.8725 105° East 176 203 11,000  Level Chicago Center
Wed 02:18:21 PM 42.6542 -84.8069 104° East 177 204 11,000 290 Level Chicago Center
Wed 02:19:23 PM 42.6417 -84.7475 106° East 170 196 11,600 581 Climbing Chicago Center
Wed 02:20:25 PM 42.6314 -84.6933 104° East 154 177 12,200 581 Climbing Chicago Center
Wed 02:21:27 PM 42.6225 -84.6419 103° East 144 166 12,800 629 Climbing Chicago Center
Wed 02:22:29 PM 42.6103 -84.5831 106° East 136 157 13,500 532 Climbing Chicago Center
Wed 02:23:31 PM 42.6003 -84.5372 106° East 129 148 13,900 290 Climbing Chicago Center
Wed 02:24:33 PM 42.5911 -84.4844 103° East 138 159 14,100 96 Climbing Chicago Center
Wed 02:25:36 PM 42.5778 -84.4239 107° East 159 183 14,100  Level Chicago Center
Wed 02:27:06 PM 42.5556 -84.3294 108° East 166 191 14,100  Level Cleveland Center
Wed 02:28:06 PM 42.5431 -84.2667 105° East 166 191 14,100  Level Cleveland Center
Wed 02:29:06 PM 42.5325 -84.2014 102° East 166 191 14,100  Level Cleveland Center
Wed 02:30:06 PM 42.5178 -84.1386 108° East 166 191 14,100  Level Cleveland Center
Wed 02:31:06 PM 42.5053 -84.0758 105° East 166 191 14,100  Level Cleveland Center
Wed 02:32:06 PM 42.4925 -84.0131 105° East 166 191 14,100  Level Cleveland Center
Wed 02:33:06 PM 42.4797 -83.9506 105° East 166 191 14,100  Level Cleveland Center
Wed 02:34:06 PM 42.4669 -83.8878 105° East 166 191 14,100  Level Cleveland Center
Wed 02:35:06 PM 42.4542 -83.8253 105° East 166 191 14,100  Level Cleveland Center
Wed 02:36:06 PM 42.4414 -83.7628 105° East 166 191 14,100  Level Cleveland Center
Wed 02:37:06 PM 42.4283 -83.7003 106° East 166 191 14,100  Level Cleveland Center
Wed 02:38:06 PM 42.4156 -83.6375 105° East 166 191 14,100  Level Cleveland Center
Wed 02:39:06 PM 42.3939 -83.5803 117° Southeast 166 191 14,100  Level Cleveland Center
Wed 02:40:06 PM 42.3536 -83.5364 141° Southeast 178 205 14,100  Level Cleveland Center
Wed 02:41:06 PM 42.3150 -83.4894 138° Southeast 178 205 14,100  Level Cleveland Center
Wed 02:42:06 PM 42.2767 -83.4456 140° Southeast 183 211 14,100  Level Cleveland Center
Wed 02:43:06 PM 42.2381 -83.3989 138° Southeast 183 211 14,100  Level Cleveland Center
Wed 02:44:06 PM 42.1975 -83.3553 141° Southeast 183 211 14,100  Level Cleveland Center
Wed 02:45:06 PM 42.1631 -83.3117 137° Southeast 178 205 14,100  Level Cleveland Center
Wed 02:46:06 PM 42.1328 -83.2739 137° Southeast 183 211 14,100  Level Cleveland Center
Wed 02:47:06 PM 42.0881 -83.2217 139° Southeast 178 205 14,100  Level Cleveland Center
Wed 02:48:06 PM 42.0494 -83.1781 140° Southeast 178 205 14,100  Level Cleveland Center
Wed 02:49:07 PM 42.0150 -83.1347 137° Southeast 178 205 14,100  Level Cleveland Center
Wed 02:50:06 PM 42.0100 -83.0731 96° East 160 184 14,100 -151 Level Cleveland Center
Wed 02:51:06 PM 42.0031 -83.0114 99° East 155 178 13,800 -350 Descending Cleveland Center
Wed 02:52:06 PM 41.9961 -82.9414 98° East 166 191 13,400 -400 Descending Cleveland Center
Wed 02:53:06 PM 41.9892 -82.8739 98° East 178 205 13,000 -450 Descending Cleveland Center
Wed 02:54:06 PM 41.9822 -82.8011 97° East 184 212 12,500 -450 Descending Cleveland Center
Wed 02:55:06 PM 41.9753 -82.7311 98° East 184 212 12,100 -450 Descending Cleveland Center
Wed 02:56:06 PM 41.9683 -82.6608 98° East 184 212 11,600 -500 Descending Cleveland Center
Wed 02:57:06 PM 41.9611 -82.5936 98° East 184 212 11,100 -500 Descending Cleveland Center
Wed 02:58:06 PM 41.9539 -82.5236 98° East 184 212 10,600 -500 Descending Cleveland Center
Wed 02:59:06 PM 41.9467 -82.4536 98° East 184 212 10,100 -500 Descending Cleveland Center
Wed 02:59:54 PM 41.9392 -82.4058 102° East 194 223 9,700 -550 Descending Cleveland Center
Wed 03:00:55 PM 41.9342 -82.3250 95° East 196 226 9,100 -595 Descending Cleveland Center
Wed 03:01:55 PM 41.9269 -82.2522 98° East 202 232 8,500 -595 Descending Cleveland Center
Wed 03:02:56 PM 41.9175 -82.1822 100° East 193 222 7,900 -541 Descending Cleveland Center
Wed 03:03:57 PM 41.8975 -82.1175 113° Southeast 202 232 7,400 -545 Descending Cleveland Center
Wed 03:04:57 PM 41.8522 -82.0689 141° Southeast 203 234 6,800 -595 Descending Cleveland Center
Wed 03:05:58 PM 41.8050 -82.0289 148° Southeast 194 223 6,200 -639 Descending Cleveland Center
Wed 03:06:59 PM 41.7658 -81.9889 143° Southeast 182 209 5,500 -694 Descending Cleveland Center
Wed 03:07:59 PM 41.7225 -81.9519 148° Southeast 178 205 4,800 -744 Descending Cleveland Center
Wed 03:09:00 PM 41.6833 -81.9178 147° Southeast 179 206 4,000 -738 Descending Cleveland Center
Wed 03:10:01 PM 41.6422 -81.8697 139° Southeast 176 203 3,300 -689 Descending Cleveland Center
Wed 03:11:02 PM 41.6031 -81.8300 143° Southeast 168 193 2,600 -344 Descending Cleveland Center
Wed 03:12:03 PM 41.5783 -81.7878 128° Southeast 139 160 2,600  Level Cleveland Center
Wed 03:13:03 PM 41.5664 -81.7406 109° East 133 153 2,600 -149 Level Cleveland Center
Wed 03:14:04 PM 41.5394 -81.7317 166° South 170 196 2,300 -541 Descending Cleveland Center
Wed 03:15:05 PM 41.5061 -81.7283 176° South 103 119 1,500 -787 Descending Cleveland Center
Wed 03:17:00 PM 41.5175 -81.6833 217° Southwest  Level Estimated
Wed 03:24:00 PM 41.5175 -81.6833 217° Southwest  Level Estimated

Login

Don't have an account? Register now (free) for customized features, flight alerts, and more!